»·PEaware :: LBQ783 KVNY-KAVX

LBQ783 :: KVNY-KAVX

FLIGHT INFORMATION

Flight Status: Arrived
Operator: Unknown
More flights by this operator :: More flights under this callsign
Pilot: Walter H. (552)
Aircraft: BEECH AIRCRAFT BARON
(BE58)
More flights by this aircraft type
Origin: KVNY Van Nuys
United States
Destination: KAVX Catalina
United States
More flights between these airports :: More routes between these airports
Route: +DARTS V186 BAYJY V363 DANAH SXC065 SXC
File this flight plan on PilotEdge
Remarks: TEC ROUTE BURP16
Altitude:
(Current/Filed)
5,000ft
Speed:
(Current/Filed)
160kts
Departed: 08-Jul-20 07:02 PM
Arrived: 08-Jul-20 07:46 PM
Distance/Time
Traveled:
49nm/0:43
Distance/Time
To Go:
Arrived

Flight Plot

Page will automatically refresh every two minutes.

Flight plan parsing failed; only flown route is shown


Map Options




Map Legend


Flown Route
Filed Route
Departure Airport
Arrival Airport
Navaid (VOR, NDB)
Fix

Horizontal Profiles

Position Reports

Time Latitude Longitude Heading Altitude Ground
Speed
08-Jul-20 18:40 34.219460 -118.494800 147 806ft 0kts
08-Jul-20 18:41 34.219459 -118.494800 147 806ft 0kts
08-Jul-20 18:42 34.219459 -118.494800 147 806ft 0kts
08-Jul-20 18:43 34.219459 -118.494800 147 806ft 0kts
08-Jul-20 18:44 34.219459 -118.494800 147 806ft 0kts
08-Jul-20 18:45 34.219459 -118.494800 147 806ft 0kts
08-Jul-20 18:46 34.219459 -118.494800 147 806ft 0kts
08-Jul-20 18:47 34.219459 -118.494800 147 806ft 0kts
08-Jul-20 18:48 34.219459 -118.494800 147 806ft 0kts
08-Jul-20 18:49 34.219459 -118.494800 147 806ft 0kts
08-Jul-20 18:50 34.219459 -118.494800 147 806ft 0kts
08-Jul-20 18:51 34.219459 -118.494800 147 806ft 0kts
08-Jul-20 18:52 34.219459 -118.494800 147 806ft 0kts
08-Jul-20 18:53 34.219459 -118.494800 147 806ft 0kts
08-Jul-20 18:54 34.219459 -118.494800 147 806ft 0kts
08-Jul-20 18:55 34.219459 -118.494800 147 806ft 0kts
08-Jul-20 18:56 34.219459 -118.494800 147 806ft 0kts
08-Jul-20 18:57 34.219459 -118.494800 147 806ft 0kts
08-Jul-20 18:58 34.218860 -118.493770 90 806ft 0kts
08-Jul-20 18:59 34.218852 -118.493406 89 806ft 1kts
08-Jul-20 19:00 34.218727 -118.492239 86 806ft 0kts
08-Jul-20 19:01 34.215903 -118.490930 176 806ft 73kts
08-Jul-20 19:02 34.192381 -118.471573 124 1699ft 134kts
08-Jul-20 19:03 34.173311 -118.432110 123 2835ft 138kts
08-Jul-20 19:04 34.164303 -118.386852 98 3853ft 142kts
08-Jul-20 19:05 34.161027 -118.339298 98 4803ft 142kts
08-Jul-20 19:06 34.157237 -118.286545 98 5042ft 173kts
08-Jul-20 19:07 34.143307 -118.228400 112 5013ft 184kts
08-Jul-20 19:08 34.125529 -118.169709 113 4977ft 186kts
08-Jul-20 19:09 34.107672 -118.111261 113 4966ft 186kts
08-Jul-20 19:10 34.089725 -118.052619 113 4976ft 185kts
08-Jul-20 19:11 34.071605 -117.993730 113 4971ft 188kts
08-Jul-20 19:12 34.053464 -117.934855 113 4979ft 188kts
08-Jul-20 19:13 34.035135 -117.875448 113 4991ft 188kts
08-Jul-20 19:14 34.001515 -117.864058 241 5034ft 165kts
08-Jul-20 19:15 33.970904 -117.907060 221 4955ft 174kts
08-Jul-20 19:16 33.933232 -117.943297 217 4953ft 174kts
08-Jul-20 19:18 33.895825 -117.977299 217 4960ft 174kts
08-Jul-20 19:19 33.857092 -118.012173 217 4965ft 173kts
08-Jul-20 19:20 33.818901 -118.046392 216 4853ft 161kts
08-Jul-20 19:21 33.787301 -118.074594 216 4917ft 128kts
08-Jul-20 19:22 33.759811 -118.099242 217 4950ft 120kts
08-Jul-20 19:23 33.729563 -118.126490 217 5003ft 156kts
08-Jul-20 19:24 33.693374 -118.158920 217 4994ft 169kts
08-Jul-20 19:25 33.655575 -118.192710 217 4983ft 170kts
08-Jul-20 19:26 33.617559 -118.226658 217 4989ft 170kts
08-Jul-20 19:27 33.579523 -118.260855 217 5000ft 171kts
08-Jul-20 19:28 33.539458 -118.291981 213 5008ft 172kts
08-Jul-20 19:29 33.498971 -118.323386 214 5013ft 173kts
08-Jul-20 19:30 33.457775 -118.355598 214 4737ft 185kts
08-Jul-20 19:31 33.414447 -118.391378 215 3746ft 180kts
08-Jul-20 19:32 33.373825 -118.421621 211 3166ft 153kts
08-Jul-20 19:33 33.339942 -118.444752 210 3460ft 141kts
08-Jul-20 19:34 33.341497 -118.479743 358 3450ft 165kts
08-Jul-20 19:35 33.364596 -118.435861 80 3505ft 171kts
08-Jul-20 19:36 33.397534 -118.420116 295 3434ft 165kts
08-Jul-20 19:36 33.378487 -118.452775 210 3439ft 166kts
08-Jul-20 19:38 33.348043 -118.432398 51 3375ft 176kts
08-Jul-20 19:39 33.391261 -118.425156 307 3345ft 171kts
08-Jul-20 19:39 33.377604 -118.460325 209 3460ft 164kts
08-Jul-20 19:41 33.328631 -118.484180 159 3357ft 173kts
08-Jul-20 19:41 33.331496 -118.447234 27 3513ft 169kts
08-Jul-20 19:42 33.370793 -118.424907 28 3085ft 120kts
08-Jul-20 19:43 33.400936 -118.414256 354 2365ft 111kts
08-Jul-20 19:44 33.399142 -118.428205 100 1978ft 111kts
08-Jul-20 19:45 33.403619 -118.415567 238 1549ft 13kts
08-Jul-20 19:46 33.403501 -118.415773 231 1550ft 0kts
08-Jul-20 19:47 33.403501 -118.415773 231 1550ft 0kts
08-Jul-20 19:48 33.403501 -118.415773 231 1550ft 0kts
08-Jul-20 19:49 33.403501 -118.415773 231 1550ft 0kts
08-Jul-20 19:50 33.403501 -118.415773 231 1550ft 0kts
08-Jul-20 19:51 33.403501 -118.415773 231 1550ft 0kts
08-Jul-20 19:52 33.403501 -118.415773 231 1550ft 0kts
08-Jul-20 19:53 33.403501 -118.415773 231 1550ft 0kts
08-Jul-20 19:54 33.403501 -118.415773 231 1550ft 0kts
08-Jul-20 19:55 33.403501 -118.415773 231 1550ft 0kts
08-Jul-20 19:56 33.403501 -118.415773 231 1550ft 0kts

Navigation Log

Ident Type
Flight plan parsing failed, navigation log unavailable